MCY weather

Sunshine Coast Airport
Maroochydore, Queensland, Australia

Public forecast

Using degrees Celsius for public forecast. Weather courtesy of forecast.io.

METAR (pilot weather report)

Closest report is Brisbane International Airport, 46.9 nm (86.9 km) S. Retrieved 2018/09/21 13:30 UTC (24 minutes ago):

YBBN 211330Z 18005KT CAVOK 15/10 Q1027

TAF (pilot weather forecast)

Closest forecast is Brisbane International Airport, 46.9 nm (86.9 km) S. Retrieved 2018/09/21 12:00 UTC (2 hours ago):

TAF YBBN 211109Z 2112/2218 14008KT 9999 FEW030 FM211400 19006KT 9999 FEW030 FM212300 14010KT 9999 FEW035 SCT050 FM220200 10012KT 9999 FEW035 SCT055 FM221100 VRB05KT 9999 FEW030 FM221600 19005KT CAVOK